YTZ weather

Billy Bishop Toronto City Centre Airport
Toronto, Ontario, Canada

Public forecast

Using degrees Celsius for public forecast. Weather courtesy of forecast.io.

Current aviation weather report (METAR) for Billy Bishop Toronto City Centre Airport

Retrieved 2019/10/22 00:00 UTC (19 minutes ago):

CYTZ 220000Z AUTO 07019G27KT 9SM OVC210 14/11 A2987 RMK SLP117

Aviation forecast (TAF) for Billy Bishop Toronto City Centre Airport

Retrieved 2019/10/21 20:41 UTC (4 hours ago):

TAF CYTZ 211938Z 2120/2220 06020G30KT P6SM FEW012 BKN250 TEMPO 2120/2201 BKN012 OVC250 FM220100 08020G30KT P6SM FEW010 BKN080 OVC180 TEMPO 2201/2205 P6SM -SHRA OVC060 BECMG 2201/2203 08018KT FM220500 12010KT P6SM -RA FEW008 OVC050 FM220700 12012KT 4SM RA BR SCT008 OVC020 FM220900 17012KT 3SM RA BR OVC008 FM221200 18010G20KT 2SM -RA BR OVC005 FM221500 19012G22KT P6SM -SHRA BKN008 OVC010 FM221800 20017G27KT P6SM -SHRA SCT008 OVC012 RMK FCST BASED ON AUTO OBS NXT FCST BY 220200Z